Time;durP1;ratioP1;P1;durP2;ratioP2;P2;SDS_P1;SDS_P2;PMS_P1;PMS_P2;Temp;Humidity;BMP_temperature;BMP_pressure;BME280_temperature;BME280_humidity;BME280_pressure;Samples;Min_cycle;Max_cycle;Signal;HPM_P1;HPM_P2
2023/07/27 00:01:13;;;;;;;8.80;6.45;;;;;;;18.22;100.00;92527.56;5065524;28;20044;-74
2023/07/27 00:03:40;;;;;;;10.27;7.85;;;;;;;17.76;100.00;92524.25;5062915;28;20461;-75
2023/07/27 00:06:06;;;;;;;10.10;7.65;;;;;;;17.67;100.00;92524.06;5066229;28;20049;-73
2023/07/27 00:08:33;;;;;;;9.75;8.32;;;;;;;17.50;100.00;92511.47;5065814;28;20044;-73
2023/07/27 00:11:01;;;;;;;11.55;7.97;;;;;;;17.28;100.00;92517.81;5065661;28;20048;-73
2023/07/27 00:13:28;;;;;;;11.35;8.65;;;;;;;17.29;100.00;92534.94;5066695;28;20044;-73
2023/07/27 00:15:55;;;;;;;9.98;7.32;;;;;;;17.15;100.00;92516.56;5069478;28;20057;-73
2023/07/27 00:18:21;;;;;;;11.15;8.05;;;;;;;17.35;100.00;92528.66;5069144;28;20445;-73
2023/07/27 00:20:48;;;;;;;10.68;6.50;;;;;;;17.43;100.00;92521.34;5069145;28;20041;-73
2023/07/27 00:23:15;;;;;;;9.13;7.20;;;;;;;17.54;100.00;92517.63;5069472;28;20452;-74
2023/07/27 00:25:41;;;;;;;9.02;6.30;;;;;;;17.59;100.00;92509.06;5069527;28;20044;-73
2023/07/27 00:28:09;;;;;;;7.90;5.68;;;;;;;17.58;100.00;92502.28;5068353;28;20552;-73
2023/07/27 00:30:36;;;;;;;7.60;5.18;;;;;;;17.64;100.00;92506.44;5069232;28;20078;-73
2023/07/27 00:33:03;;;;;;;5.93;4.47;;;;;;;17.76;100.00;92516.47;5068941;28;20048;-73
2023/07/27 00:35:30;;;;;;;5.78;4.68;;;;;;;17.77;100.00;92524.00;5069087;28;20102;-73
2023/07/27 00:37:56;;;;;;;6.53;4.53;;;;;;;17.86;100.00;92528.59;5069476;28;20052;-73
2023/07/27 00:40:23;;;;;;;5.55;3.97;;;;;;;17.82;100.00;92527.59;5069383;28;20493;-73
2023/07/27 00:42:50;;;;;;;6.20;4.60;;;;;;;18.00;100.00;92529.53;5068457;28;20094;-73
2023/07/27 00:45:18;;;;;;;5.65;3.92;;;;;;;18.00;100.00;92534.72;5068923;28;20052;-73
2023/07/27 00:47:45;;;;;;;5.53;3.80;;;;;;;17.62;100.00;92518.88;5067947;28;20053;-73
2023/07/27 00:50:12;;;;;;;6.53;3.72;;;;;;;17.85;100.00;92527.84;5068514;28;20559;-73
2023/07/27 00:52:40;;;;;;;5.50;3.95;;;;;;;17.96;100.00;92530.34;5068973;28;20098;-73
2023/07/27 00:55:07;;;;;;;5.70;4.50;;;;;;;18.27;100.00;92545.69;5068076;28;20136;-73
2023/07/27 00:57:34;;;;;;;5.47;3.85;;;;;;;18.38;100.00;92536.75;5068659;28;20044;-73
2023/07/27 01:00:00;;;;;;;5.70;3.42;;;;;;;18.32;100.00;92531.91;5068865;28;20094;-74
2023/07/27 01:02:29;;;;;;;4.38;2.92;;;;;;;18.20;100.00;92538.25;5068699;28;20110;-73
2023/07/27 01:04:56;;;;;;;3.60;2.15;;;;;;;17.38;100.00;92529.16;5068246;28;20069;-73
2023/07/27 01:07:22;;;;;;;4.05;2.65;;;;;;;17.21;100.00;92538.06;5068883;28;20044;-73
2023/07/27 01:09:49;;;;;;;4.32;2.45;;;;;;;17.11;100.00;92538.16;5068912;28;20052;-72
2023/07/27 01:12:24;;;;;;;4.35;2.90;;;;;;;16.89;100.00;92550.38;5068003;28;20044;-73
2023/07/27 01:15:01;;;;;;;3.92;2.40;;;;;;;17.01;100.00;92536.31;5068415;28;20052;-73
2023/07/27 01:17:34;;;;;;;3.55;2.20;;;;;;;16.41;100.00;92533.41;5068843;28;20049;-73
2023/07/27 01:20:11;;;;;;;3.50;2.75;;;;;;;16.61;100.00;92505.09;5068583;28;20094;-73
2023/07/27 01:23:04;;;;;;;2.88;2.03;;;;;;;16.74;100.00;92533.06;5068198;28;20551;-72
2023/07/27 01:25:49;;;;;;;2.92;1.92;;;;;;;16.68;100.00;92542.66;5033799;28;20059;-72
2023/07/27 01:28:39;;;;;;;2.78;2.08;;;;;;;16.86;100.00;92543.13;5068570;28;20052;-73
2023/07/27 01:31:10;;;;;;;3.15;1.98;;;;;;;16.69;100.00;92551.22;5067765;28;20093;-71
2023/07/27 01:33:42;;;;;;;3.30;2.10;;;;;;;16.77;100.00;92549.91;5067373;28;20048;-70
2023/07/27 01:36:12;;;;;;;3.08;2.70;;;;;;;16.75;100.00;92544.97;5067987;28;20040;-70
2023/07/27 01:38:42;;;;;;;2.95;2.30;;;;;;;16.60;100.00;92545.78;5067972;28;20421;-71
2023/07/27 01:41:10;;;;;;;3.05;2.58;;;;;;;16.76;100.00;92558.72;5067359;28;20049;-73
2023/07/27 01:43:39;;;;;;;3.38;2.50;;;;;;;16.62;100.00;92553.31;5067930;28;20544;-73
2023/07/27 01:46:08;;;;;;;3.67;3.00;;;;;;;16.59;100.00;92551.25;5067253;28;20048;-73
2023/07/27 01:48:38;;;;;;;4.50;3.35;;;;;;;16.47;100.00;92541.94;5065151;28;20509;-73
2023/07/27 01:51:06;;;;;;;3.75;3.13;;;;;;;16.32;100.00;92550.50;5065589;28;20094;-74
2023/07/27 01:53:35;;;;;;;4.20;3.20;;;;;;;16.32;100.00;92554.91;5063315;28;20044;-74
2023/07/27 01:56:04;;;;;;;4.00;3.17;;;;;;;16.37;100.00;92547.13;5067424;28;20052;-73
2023/07/27 01:58:31;;;;;;;5.07;3.80;;;;;;;16.55;100.00;92559.56;5066987;28;20098;-73
2023/07/27 02:00:59;;;;;;;3.75;3.35;;;;;;;16.65;100.00;92563.16;5067268;28;20052;-73
2023/07/27 02:03:27;;;;;;;3.42;3.10;;;;;;;16.56;100.00;92568.88;5067243;28;20044;-73
2023/07/27 02:05:54;;;;;;;6.25;3.70;;;;;;;16.62;100.00;92580.00;5067336;28;20044;-73
2023/07/27 02:08:21;;;;;;;5.00;3.95;;;;;;;16.40;100.00;92578.47;5067166;28;20449;-73
2023/07/27 02:10:54;;;;;;;7.90;3.97;;;;;;;16.49;100.00;92578.75;5066954;28;20044;-73
2023/07/27 02:13:25;;;;;;;6.20;4.80;;;;;;;16.25;100.00;92599.25;5067365;28;20049;-74
2023/07/27 02:15:57;;;;;;;6.25;5.00;;;;;;;16.07;100.00;92593.56;5067026;28;20052;-74
2023/07/27 02:18:26;;;;;;;5.70;4.90;;;;;;;15.93;100.00;92602.84;5067068;28;20059;-74
2023/07/27 02:20:56;;;;;;;6.22;5.38;;;;;;;16.03;100.00;92595.09;5066700;28;20044;-74
2023/07/27 02:23:24;;;;;;;6.07;5.38;;;;;;;16.04;100.00;92591.47;5066491;28;20502;-73
2023/07/27 02:25:51;;;;;;;6.28;4.88;;;;;;;15.96;100.00;92592.00;5066942;28;20109;-74
2023/07/27 02:28:18;;;;;;;7.90;6.20;;;;;;;15.79;100.00;92584.41;5067179;28;20102;-74
2023/07/27 02:30:44;;;;;;;7.13;6.13;;;;;;;15.81;100.00;92598.66;5066694;28;20456;-73
2023/07/27 02:33:11;;;;;;;7.70;6.13;;;;;;;15.65;100.00;92613.41;5067032;28;20106;-74
2023/07/27 02:35:38;;;;;;;8.07;7.03;;;;;;;15.72;100.00;92613.94;5067142;28;20049;-73
2023/07/27 02:38:06;;;;;;;7.95;6.40;;;;;;;15.87;100.00;92617.56;5066362;28;20048;-73
2023/07/27 02:40:33;;;;;;;8.20;6.55;;;;;;;15.94;100.00;92623.31;5066347;28;20048;-74
2023/07/27 02:42:59;;;;;;;7.70;6.38;;;;;;;15.65;100.00;92623.75;5066576;28;20106;-73
2023/07/27 02:45:26;;;;;;;7.03;6.13;;;;;;;15.56;100.00;92615.69;5066902;28;20565;-73
2023/07/27 02:47:53;;;;;;;7.70;6.55;;;;;;;15.63;100.00;92615.47;5067004;28;20049;-73
2023/07/27 02:50:19;;;;;;;8.80;6.03;;;;;;;15.50;100.00;92619.31;5066963;28;20056;-73
2023/07/27 02:52:46;;;;;;;8.60;6.82;;;;;;;15.49;100.00;92628.88;5066124;28;20045;-73
2023/07/27 02:55:14;;;;;;;7.07;6.30;;;;;;;15.49;100.00;92628.09;5066461;28;20494;-73
2023/07/27 02:57:41;;;;;;;7.88;6.38;;;;;;;15.43;100.00;92636.88;5067076;28;20106;-73
2023/07/27 03:00:09;;;;;;;7.20;6.40;;;;;;;15.46;100.00;92644.16;5066398;28;20040;-74
2023/07/27 03:02:36;;;;;;;7.20;6.18;;;;;;;15.55;100.00;92655.56;5066578;28;20049;-73
2023/07/27 03:05:04;;;;;;;7.55;6.55;;;;;;;15.61;100.00;92657.13;5065790;28;20097;-73
2023/07/27 03:07:31;;;;;;;8.43;6.57;;;;;;;15.43;100.00;92663.56;5066359;28;20098;-73
2023/07/27 03:09:57;;;;;;;7.32;6.22;;;;;;;15.47;100.00;92669.00;5066146;28;20040;-73
2023/07/27 03:12:26;;;;;;;7.60;6.80;;;;;;;15.56;100.00;92670.03;5066618;28;20552;-73
2023/07/27 03:14:52;;;;;;;8.25;7.10;;;;;;;15.51;100.00;92667.47;5065941;28;20056;-73
2023/07/27 03:17:19;;;;;;;7.97;6.47;;;;;;;15.64;100.00;92668.78;5066376;28;20502;-74
2023/07/27 03:19:46;;;;;;;8.32;7.03;;;;;;;15.61;100.00;92677.06;5066035;28;20044;-73
2023/07/27 03:22:12;;;;;;;7.95;6.93;;;;;;;15.45;100.00;92669.25;5065792;28;20053;-73
2023/07/27 03:24:39;;;;;;;7.15;6.45;;;;;;;15.10;100.00;92642.19;5066184;28;20052;-73
2023/07/27 03:27:06;;;;;;;8.30;7.32;;;;;;;15.25;100.00;92675.13;5063101;28;20041;-73
2023/07/27 03:29:34;;;;;;;8.90;7.30;;;;;;;15.30;100.00;92684.69;5066587;28;20114;-73
2023/07/27 03:32:01;;;;;;;8.48;7.68;;;;;;;15.41;100.00;92678.53;5066341;28;20057;-73
2023/07/27 03:34:27;;;;;;;8.52;7.18;;;;;;;15.60;100.00;92673.69;5065742;28;20101;-73
2023/07/27 03:36:54;;;;;;;7.55;6.53;;;;;;;15.45;100.00;92682.19;5064696;28;20041;-73
2023/07/27 03:39:21;;;;;;;8.00;6.72;;;;;;;15.16;100.00;92655.91;5065476;28;20395;-73
2023/07/27 03:41:48;;;;;;;7.57;6.78;;;;;;;15.20;100.00;92672.50;5065193;28;20041;-74
2023/07/27 03:44:14;;;;;;;8.73;7.72;;;;;;;15.30;100.00;92685.50;5064821;28;20460;-73
2023/07/27 03:46:42;;;;;;;8.13;7.32;;;;;;;15.33;100.00;92684.22;5065862;28;20044;-73
2023/07/27 03:49:09;;;;;;;7.50;6.72;;;;;;;15.43;100.00;92699.00;5067329;28;20044;-73
2023/07/27 03:51:36;;;;;;;8.45;7.55;;;;;;;15.61;100.00;92718.50;5069215;28;20045;-73
2023/07/27 03:54:03;;;;;;;7.75;6.47;;;;;;;15.56;100.00;92713.28;5067768;28;20092;-73
2023/07/27 03:56:29;;;;;;;7.03;6.32;;;;;;;15.45;100.00;92710.66;5067740;28;20665;-74
2023/07/27 03:58:56;;;;;;;7.20;6.50;;;;;;;15.41;100.00;92711.41;5064968;28;20044;-74
2023/07/27 04:01:23;;;;;;;7.80;6.53;;;;;;;15.48;100.00;92714.56;5064370;28;20044;-74
2023/07/27 04:03:51;;;;;;;7.07;6.38;;;;;;;15.36;100.00;92728.47;5065703;28;20048;-73
2023/07/27 04:06:18;;;;;;;7.53;6.70;;;;;;;15.58;100.00;92735.31;5068018;28;20048;-73
2023/07/27 04:08:44;;;;;;;5.93;5.32;;;;;;;15.30;100.00;92733.88;5069128;28;20110;-73
2023/07/27 04:11:11;;;;;;;6.30;5.60;;;;;;;15.32;100.00;92737.00;5068853;28;20146;-72
2023/07/27 04:13:38;;;;;;;7.30;6.47;;;;;;;15.25;100.00;92747.56;5068731;28;20125;-73
2023/07/27 04:16:05;;;;;;;8.10;6.88;;;;;;;15.15;100.00;92737.94;5068142;28;20041;-73
2023/07/27 04:18:32;;;;;;;7.47;6.78;;;;;;;15.26;100.00;92750.91;5068494;28;20048;-73
2023/07/27 04:21:00;;;;;;;6.15;5.55;;;;;;;15.46;100.00;92750.28;5069111;28;20056;-73
2023/07/27 04:23:27;;;;;;;6.03;5.43;;;;;;;15.40;100.00;92764.19;5068494;28;20052;-73
2023/07/27 04:25:53;;;;;;;5.80;5.20;;;;;;;15.39;100.00;92767.81;5068751;28;20098;-73
2023/07/27 04:28:20;;;;;;;6.25;4.93;;;;;;;15.42;100.00;92780.25;5069095;28;20075;-73
2023/07/27 04:30:47;;;;;;;5.68;5.05;;;;;;;15.46;100.00;92773.56;5068618;28;20052;-73
2023/07/27 04:33:13;;;;;;;5.45;4.65;;;;;;;15.40;100.00;92782.31;5068037;28;20040;-73
2023/07/27 04:35:40;;;;;;;4.15;3.67;;;;;;;15.08;99.27;92781.31;5068605;28;20427;-73
2023/07/27 04:38:08;;;;;;;3.90;3.30;;;;;;;15.08;99.84;92784.69;5069427;28;20052;-73
2023/07/27 04:40:35;;;;;;;4.28;3.30;;;;;;;15.03;100.00;92774.31;5065649;28;20094;-73
2023/07/27 04:43:02;;;;;;;3.72;3.15;;;;;;;15.30;98.94;92793.38;5068426;28;20055;-71
2023/07/27 04:45:28;;;;;;;6.03;2.72;;;;;;;15.34;97.85;92797.03;5065965;28;20101;-70
2023/07/27 04:47:55;;;;;;;3.50;2.97;;;;;;;15.40;97.94;92803.00;5064903;28;20502;-70
2023/07/27 04:50:22;;;;;;;4.25;3.30;;;;;;;15.37;97.00;92809.50;5063886;28;20056;-72
2023/07/27 04:52:48;;;;;;;3.53;2.90;;;;;;;15.19;96.00;92780.38;5064551;28;20044;-72
2023/07/27 04:55:17;;;;;;;3.70;3.30;;;;;;;15.32;97.85;92810.22;5063099;28;20066;-72
2023/07/27 04:57:43;;;;;;;5.20;3.95;;;;;;;15.00;98.90;92825.75;5063785;28;20114;-73
2023/07/27 05:00:11;;;;;;;3.70;3.30;;;;;;;15.12;98.18;92807.47;5062618;28;20095;-72
2023/07/27 05:02:37;;;;;;;2.90;2.60;;;;;;;15.21;97.10;92817.13;5067702;28;20040;-72
2023/07/27 05:05:05;;;;;;;4.70;2.58;;;;;;;15.12;96.46;92823.00;5065871;28;20044;-72
2023/07/27 05:07:31;;;;;;;3.20;2.90;;;;;;;14.83;96.68;92814.50;5068002;28;20048;-72
2023/07/27 05:09:58;;;;;;;3.85;2.88;;;;;;;14.83;97.51;92830.00;5068801;28;20044;-73
2023/07/27 05:12:26;;;;;;;3.33;2.63;;;;;;;14.95;96.85;92834.28;5067377;28;20048;-73
2023/07/27 05:14:53;;;;;;;3.47;3.15;;;;;;;14.79;96.19;92839.28;5067653;28;20052;-73
2023/07/27 05:17:20;;;;;;;3.42;2.80;;;;;;;15.00;96.70;92836.09;5067480;28;20049;-72
2023/07/27 05:19:46;;;;;;;4.03;3.00;;;;;;;14.85;96.73;92834.94;5065310;28;20505;-73
2023/07/27 05:22:13;;;;;;;3.55;3.10;;;;;;;14.80;97.37;92838.28;5067749;28;20059;-73
2023/07/27 05:24:40;;;;;;;4.22;3.65;;;;;;;14.96;95.80;92843.59;5068634;28;20048;-72
2023/07/27 05:27:07;;;;;;;3.40;2.95;;;;;;;14.98;95.96;92838.13;5067827;28;20045;-73
2023/07/27 05:29:35;;;;;;;3.63;3.25;;;;;;;14.88;95.50;92837.03;5067734;28;20044;-73
2023/07/27 05:32:01;;;;;;;3.58;2.90;;;;;;;14.80;95.44;92840.84;5067391;28;20053;-73
2023/07/27 05:34:28;;;;;;;2.67;2.40;;;;;;;14.83;93.78;92842.16;5067976;28;20106;-73
2023/07/27 05:36:55;;;;;;;2.60;2.28;;;;;;;14.56;94.59;92809.31;5067113;28;20048;-73
2023/07/27 05:39:22;;;;;;;3.13;2.80;;;;;;;14.95;93.55;92847.97;5064493;28;20448;-73
2023/07/27 05:41:48;;;;;;;2.92;2.55;;;;;;;15.25;93.84;92847.66;5063696;28;20048;-72
2023/07/27 05:44:15;;;;;;;2.95;2.50;;;;;;;15.55;92.01;92859.28;5064473;28;20102;-72
2023/07/27 05:46:43;;;;;;;3.58;2.78;;;;;;;15.89;90.49;92853.78;5061703;28;20539;-73
2023/07/27 05:49:10;;;;;;;3.17;2.28;;;;;;;16.14;86.63;92871.28;5063013;28;20044;-72
2023/07/27 05:51:37;;;;;;;2.80;2.42;;;;;;;16.45;86.41;92869.84;5063540;28;20059;-72
2023/07/27 05:54:03;;;;;;;3.03;2.38;;;;;;;16.31;85.39;92872.91;5063869;28;20045;-73
2023/07/27 05:56:30;;;;;;;3.20;2.58;;;;;;;16.23;85.23;92876.78;5065514;28;20457;-73
2023/07/27 05:58:57;;;;;;;2.95;2.58;;;;;;;16.48;85.30;92871.94;5067304;28;20045;-72
2023/07/27 06:01:24;;;;;;;4.80;2.13;;;;;;;16.58;80.69;92864.19;5061947;28;20876;-73
2023/07/27 06:03:52;;;;;;;4.72;1.80;;;;;;;16.31;80.17;92867.75;5063362;28;20847;-73
2023/07/27 06:06:19;;;;;;;3.17;2.22;;;;;;;15.99;79.98;92847.91;5065481;28;20464;-73
2023/07/27 06:08:45;;;;;;;2.53;1.80;;;;;;;16.00;78.63;92855.44;5067569;28;21207;-73
2023/07/27 06:11:13;;;;;;;2.28;2.08;;;;;;;16.26;79.72;92863.28;5066234;28;20051;-72
2023/07/27 06:13:39;;;;;;;2.47;1.98;;;;;;;16.10;79.02;92864.28;5066136;28;20060;-73
2023/07/27 06:16:06;;;;;;;2.53;1.88;;;;;;;16.15;78.39;92864.28;5066222;28;20515;-73
2023/07/27 06:18:33;;;;;;;2.55;1.80;;;;;;;16.41;78.65;92867.00;5067246;28;20505;-73
2023/07/27 06:21:01;;;;;;;3.40;1.90;;;;;;;16.81;75.40;92859.59;5063538;28;20052;-74
2023/07/27 06:23:28;;;;;;;2.35;1.55;;;;;;;16.76;75.11;92875.91;5062918;28;20053;-73
2023/07/27 06:25:55;;;;;;;2.15;1.50;;;;;;;17.20;76.04;92866.13;5060956;28;20044;-73
2023/07/27 06:28:22;;;;;;;2.03;1.60;;;;;;;17.63;73.03;92877.03;5058341;28;20098;-72
2023/07/27 06:30:48;;;;;;;2.92;1.70;;;;;;;17.74;71.12;92859.59;5062494;28;20052;-73
2023/07/27 06:33:15;;;;;;;3.72;1.50;;;;;;;17.98;71.38;92868.66;5057949;28;20185;-72
2023/07/27 06:35:42;;;;;;;2.83;1.85;;;;;;;18.09;70.52;92865.00;5059135;28;20506;-73
2023/07/27 06:38:10;;;;;;;1.88;1.17;;;;;;;17.94;68.15;92867.63;5055787;28;20056;-73
2023/07/27 06:40:37;;;;;;;2.95;1.40;;;;;;;18.11;67.56;92870.75;5058525;28;20101;-72
2023/07/27 06:43:04;;;;;;;1.40;1.10;;;;;;;18.26;69.80;92863.91;5061458;28;20037;-72
2023/07/27 06:45:30;;;;;;;1.70;1.10;;;;;;;18.50;65.90;92864.06;5061727;28;20049;-72
2023/07/27 06:47:57;;;;;;;3.20;1.30;;;;;;;18.36;66.76;92853.47;5065460;28;20395;-72
2023/07/27 06:50:24;;;;;;;1.88;1.13;;;;;;;18.52;65.48;92856.00;5066630;28;20098;-72
2023/07/27 06:52:50;;;;;;;1.27;1.02;;;;;;;17.76;66.00;92835.97;5066408;28;20052;-72
2023/07/27 06:55:18;;;;;;;1.83;1.00;;;;;;;18.32;66.85;92836.09;5066563;28;20513;-72
2023/07/27 06:57:46;;;;;;;2.38;1.13;;;;;;;18.75;66.08;92838.19;5066744;28;20044;-72
2023/07/27 07:00:14;;;;;;;5.90;1.70;;;;;;;18.95;65.43;92840.69;5061073;28;20052;-71
2023/07/27 07:02:41;;;;;;;3.10;1.40;;;;;;;19.11;64.28;92839.81;5065663;28;20048;-72
2023/07/27 07:05:08;;;;;;;3.97;1.15;;;;;;;19.42;62.24;92834.34;5066598;28;20052;-72
2023/07/27 07:07:34;;;;;;;2.08;1.23;;;;;;;19.34;61.33;92836.50;5064163;28;20048;-73
2023/07/27 07:10:02;;;;;;;2.00;1.10;;;;;;;19.48;61.46;92834.03;5065709;28;20052;-72
2023/07/27 07:12:30;;;;;;;2.58;1.15;;;;;;;19.67;59.04;92835.19;5065806;28;20049;-72
2023/07/27 07:14:56;;;;;;;4.38;1.80;;;;;;;19.76;57.69;92841.34;5062377;28;20044;-71
2023/07/27 07:17:23;;;;;;;7.38;1.58;;;;;;;20.05;57.91;92845.78;5065698;28;20135;-72
2023/07/27 07:19:50;;;;;;;3.33;1.05;;;;;;;20.05;56.01;92850.19;5065719;28;20449;-72
2023/07/27 07:22:17;;;;;;;1.73;1.02;;;;;;;19.94;56.24;92846.91;5065287;28;20057;-72
2023/07/27 07:24:43;;;;;;;4.15;1.88;;;;;;;19.83;56.62;92848.84;5069154;28;20044;-72
2023/07/27 07:27:10;;;;;;;3.30;1.90;;;;;;;20.11;57.85;92849.88;5068136;28;20095;-72
2023/07/27 07:29:38;;;;;;;1.48;1.00;;;;;;;19.77;56.95;92838.47;5069623;28;20547;-72
2023/07/27 07:32:05;;;;;;;1.45;1.10;;;;;;;19.98;55.68;92851.31;5067085;28;20044;-71
2023/07/27 07:34:33;;;;;;;1.50;1.02;;;;;;;19.97;56.44;92846.38;5068990;28;20052;-71
2023/07/27 07:37:00;;;;;;;6.75;1.38;;;;;;;19.77;57.59;92846.28;5069951;28;20052;-71
2023/07/27 07:39:27;;;;;;;3.30;1.30;;;;;;;20.01;57.84;92839.56;5069428;28;20488;-71
2023/07/27 07:41:53;;;;;;;2.00;1.20;;;;;;;19.99;56.30;92842.44;5069667;28;20045;-71
2023/07/27 07:44:20;;;;;;;1.90;1.05;;;;;;;19.90;56.92;92815.38;5069344;28;20049;-71
2023/07/27 07:46:48;;;;;;;2.03;1.10;;;;;;;19.49;55.62;92848.63;5070181;28;20556;-71
2023/07/27 07:49:15;;;;;;;2.08;1.20;;;;;;;19.71;56.33;92854.41;5069017;28;20106;-71
2023/07/27 07:51:42;;;;;;;1.80;1.02;;;;;;;19.61;56.86;92850.88;5070107;28;20056;-71
2023/07/27 07:54:09;;;;;;;1.38;0.90;;;;;;;19.97;55.23;92846.38;5065877;28;20086;-72
2023/07/27 07:56:37;;;;;;;3.15;0.85;;;;;;;20.40;55.94;92843.81;5068124;28;20052;-71
2023/07/27 07:59:04;;;;;;;1.80;1.08;;;;;;;20.23;54.23;92854.69;5068191;28;20052;-72
2023/07/27 08:01:30;;;;;;;5.22;1.23;;;;;;;20.60;55.15;92859.47;5068893;28;20448;-72
2023/07/27 08:03:58;;;;;;;4.22;1.52;;;;;;;20.85;53.21;92857.56;5067601;28;20103;-72
2023/07/27 08:06:25;;;;;;;3.92;0.90;;;;;;;20.75;52.00;92843.63;5068905;28;20063;-72
2023/07/27 08:08:52;;;;;;;1.70;0.90;;;;;;;20.42;53.50;92857.34;5069207;28;20125;-72
2023/07/27 08:11:19;;;;;;;7.47;0.80;;;;;;;20.46;53.67;92847.09;5069071;28;20468;-73
2023/07/27 08:13:46;;;;;;;1.88;1.08;;;;;;;20.26;52.35;92858.56;5068419;28;20041;-73
2023/07/27 08:16:12;;;;;;;2.35;1.08;;;;;;;19.60;54.97;92838.91;5068702;28;20087;-72
2023/07/27 08:18:39;;;;;;;2.38;1.10;;;;;;;19.84;53.77;92845.97;5065605;28;20044;-72
2023/07/27 08:21:08;;;;;;;3.63;1.10;;;;;;;19.57;55.19;92847.25;5069227;28;20064;-72
2023/07/27 08:23:35;;;;;;;2.05;1.33;;;;;;;19.51;56.41;92840.53;5069229;28;20048;-72
2023/07/27 08:26:07;;;;;;;2.60;0.63;;;;;;;19.97;56.91;92852.38;5067793;28;20052;-71
2023/07/27 08:28:33;;;;;;;2.80;1.00;;;;;;;20.16;54.06;92849.81;5066021;28;20040;-72
2023/07/27 08:31:02;;;;;;;4.40;1.00;;;;;;;20.21;52.91;92850.81;5067635;28;20041;-72
2023/07/27 08:33:28;;;;;;;5.57;1.00;;;;;;;20.13;53.94;92852.19;5068139;28;20618;-71
2023/07/27 08:35:55;;;;;;;3.53;0.90;;;;;;;20.54;55.44;92854.31;5066641;28;20118;-72
2023/07/27 08:38:23;;;;;;;3.53;0.85;;;;;;;20.95;51.78;92857.47;5066345;28;20053;-72
2023/07/27 08:40:56;;;;;;;3.20;1.05;;;;;;;20.78;52.08;92856.09;5066776;28;20045;-73
2023/07/27 08:43:23;;;;;;;1.40;0.70;;;;;;;20.79;51.80;92856.88;5067580;28;20048;-71
2023/07/27 08:45:50;;;;;;;1.45;0.75;;;;;;;20.54;53.15;92874.41;5064529;28;20055;-72
2023/07/27 08:48:17;;;;;;;3.95;0.73;;;;;;;20.78;53.43;92857.94;5063846;28;20051;-72
2023/07/27 08:50:46;;;;;;;2.85;0.70;;;;;;;21.35;52.87;92868.34;5064878;28;21528;-73
2023/07/27 08:53:13;;;;;;;2.65;1.00;;;;;;;20.87;52.79;92879.75;5064421;28;20502;-72
2023/07/27 08:55:42;;;;;;;2.88;1.13;;;;;;;20.81;51.13;92871.22;5058151;28;20190;-72
2023/07/27 08:58:09;;;;;;;2.60;1.20;;;;;;;21.16;51.33;92857.19;5057764;28;20666;-72
2023/07/27 09:00:38;;;;;;;1.33;0.65;;;;;;;21.06;50.33;92884.22;5059818;28;20060;-71
2023/07/27 09:03:04;;;;;;;2.42;0.50;;;;;;;21.22;51.82;92888.16;5061759;28;20076;-71
2023/07/27 09:05:39;;;;;;;2.55;0.88;;;;;;;20.65;52.41;92870.63;5062020;28;20418;-72
2023/07/27 09:08:07;;;;;;;2.92;1.20;;;;;;;20.68;51.58;92867.47;5058599;28;20055;-71
2023/07/27 09:10:35;;;;;;;2.03;0.73;;;;;;;20.81;52.61;92871.22;5061082;28;20060;-71
2023/07/27 09:13:03;;;;;;;1.83;1.15;;;;;;;21.00;52.98;92875.66;5057455;28;20090;-72
2023/07/27 09:15:30;;;;;;;1.63;0.60;;;;;;;20.60;51.35;92877.75;5060034;28;20060;-72
2023/07/27 09:17:58;;;;;;;4.20;1.30;;;;;;;20.11;52.98;92877.78;5064577;28;20052;-72
2023/07/27 09:20:25;;;;;;;2.30;0.80;;;;;;;20.46;52.14;92867.22;5066398;28;20064;-72
2023/07/27 09:22:55;;;;;;;1.45;0.70;;;;;;;20.41;52.61;92873.28;5062289;28;20056;-73
2023/07/27 09:25:22;;;;;;;3.72;1.15;;;;;;;20.32;52.67;92867.88;5061008;28;20052;-72
2023/07/27 09:27:53;;;;;;;2.40;1.20;;;;;;;20.47;53.87;92872.16;5058646;28;20040;-72
2023/07/27 09:30:22;;;;;;;1.30;0.70;;;;;;;20.28;52.57;92870.28;5062012;28;20463;-72
2023/07/27 09:32:50;;;;;;;1.73;0.80;;;;;;;20.73;54.09;92874.44;5062214;28;20053;-72
2023/07/27 09:35:19;;;;;;;2.40;1.10;;;;;;;20.81;53.08;92863.38;5060660;28;20052;-73
2023/07/27 09:37:47;;;;;;;4.25;2.22;;;;;;;21.10;53.84;92877.34;5060132;28;20118;-72
2023/07/27 09:40:16;;;;;;;4.07;1.75;;;;;;;21.31;52.61;92859.56;5061366;28;20110;-72
2023/07/27 09:42:44;;;;;;;4.18;0.90;;;;;;;21.50;49.18;92877.03;5062579;28;20109;-72
2023/07/27 09:45:11;;;;;;;2.53;1.58;;;;;;;21.74;49.85;92879.53;5060958;28;20110;-73
2023/07/27 09:47:40;;;;;;;2.17;0.75;;;;;;;21.84;47.98;92869.97;5061568;28;20040;-72
2023/07/27 09:50:08;;;;;;;1.27;0.75;;;;;;;21.83;48.22;92882.25;5061022;28;20052;-72
2023/07/27 09:52:36;;;;;;;3.78;1.55;;;;;;;21.82;49.26;92882.53;5060405;28;20554;-72
2023/07/27 09:55:04;;;;;;;4.95;1.50;;;;;;;22.02;50.18;92869.13;5060960;28;20040;-73
2023/07/27 09:57:30;;;;;;;4.35;1.30;;;;;;;21.58;48.74;92884.19;5060992;28;20044;-73
2023/07/27 09:59:58;;;;;;;2.60;0.90;;;;;;;21.61;49.40;92870.56;5061629;28;20048;-73
2023/07/27 10:02:25;;;;;;;3.00;0.95;;;;;;;21.15;50.68;92876.53;5061155;28;20133;-73
2023/07/27 10:04:53;;;;;;;2.22;1.27;;;;;;;21.51;50.97;92869.97;5060779;28;20048;-72
2023/07/27 10:07:21;;;;;;;2.15;0.98;;;;;;;21.63;48.63;92870.28;5062204;28;20044;-73
2023/07/27 10:09:49;;;;;;;2.60;1.23;;;;;;;21.72;49.25;92862.59;5060716;28;20045;-73
2023/07/27 10:12:28;;;;;;;2.80;0.90;;;;;;;21.47;48.56;92847.00;5063486;28;20090;-72
2023/07/27 10:15:19;;;;;;;4.55;1.77;;;;;;;21.80;47.90;92853.31;5063484;28;20084;-72
2023/07/27 10:17:46;;;;;;;6.25;1.30;;;;;;;22.38;48.35;92856.41;5060243;28;20130;-72
2023/07/27 10:20:26;;;;;;;5.68;1.95;;;;;;;22.00;48.38;92860.00;5059807;28;20048;-73
2023/07/27 10:22:53;;;;;;;2.05;1.10;;;;;;;21.80;47.77;92859.28;5060176;28;20056;-73
2023/07/27 10:25:20;;;;;;;2.97;1.10;;;;;;;21.45;49.57;92866.66;5060267;28;20048;-72
2023/07/27 10:27:57;;;;;;;2.50;1.10;;;;;;;21.61;48.61;92860.13;5060542;28;20638;-72
2023/07/27 10:30:24;;;;;;;2.00;1.20;;;;;;;21.79;48.04;92873.44;5059775;28;20133;-72
2023/07/27 10:33:15;;;;;;;3.67;1.50;;;;;;;21.96;46.92;92857.19;5059300;28;20086;-72
2023/07/27 10:36:03;;;;;;;6.88;1.67;;;;;;;22.07;46.02;92841.31;5062487;28;20055;-73
2023/07/27 10:38:32;;;;;;;2.47;0.98;;;;;;;22.23;45.44;92858.28;5060900;28;20521;-72
2023/07/27 10:41:12;;;;;;;1.80;1.00;;;;;;;22.06;46.21;92853.63;5060864;28;20053;-72
2023/07/27 10:43:59;;;;;;;2.63;1.48;;;;;;;21.79;46.42;92862.22;5060013;28;20059;-72
2023/07/27 10:46:26;;;;;;;1.60;1.02;;;;;;;22.21;46.49;92862.25;5059562;28;20702;-73
2023/07/27 10:48:59;;;;;;;2.42;1.25;;;;;;;;;;5058535;28;20058;-72
2023/07/27 10:51:27;;;;;;;2.47;1.40;;;;;;;22.15;45.24;92854.50;5062814;28;20449;-73
2023/07/27 10:53:53;;;;;;;4.28;1.77;;;;;;;22.27;46.58;92846.16;5060567;28;20052;-72
2023/07/27 10:56:21;;;;;;;2.50;1.30;;;;;;;22.46;44.86;92826.16;5059868;28;20127;-72
2023/07/27 10:58:49;;;;;;;5.18;1.23;;;;;;;22.92;45.55;92845.41;5061335;28;20048;-72
2023/07/27 11:01:16;;;;;;;2.55;1.55;;;;;;;23.14;45.31;92855.09;5063217;28;20049;-71
2023/07/27 11:03:45;;;;;;;4.80;1.55;;;;;;;23.30;44.08;92858.16;5059244;28;20044;-71
2023/07/27 11:06:12;;;;;;;2.92;0.90;;;;;;;22.71;42.95;92869.38;5060916;28;20110;-72
2023/07/27 11:08:40;;;;;;;1.70;0.90;;;;;;;21.81;45.33;92849.63;5059997;28;20044;-72
2023/07/27 11:11:18;;;;;;;2.25;1.20;;;;;;;22.28;46.42;92844.31;5059551;28;20044;-72
2023/07/27 11:13:45;;;;;;;2.38;1.38;;;;;;;21.80;45.65;92843.63;5060334;28;20044;-72
2023/07/27 11:16:13;;;;;;;1.80;1.08;;;;;;;21.68;47.91;92843.28;5062146;28;20799;-72
2023/07/27 11:18:40;;;;;;;1.55;1.17;;;;;;;21.87;46.43;92843.25;5059437;28;20055;-71
2023/07/27 11:21:08;;;;;;;2.33;1.40;;;;;;;22.32;46.83;92841.88;5061746;28;20110;-72
2023/07/27 11:23:43;;;;;;;3.15;1.08;;;;;;;22.77;45.90;92846.50;5060241;28;20052;-71
2023/07/27 11:26:10;;;;;;;1.73;1.20;;;;;;;23.06;45.94;92843.50;5060620;28;20490;-72
2023/07/27 11:28:40;;;;;;;2.30;1.15;;;;;;;22.80;46.78;92849.31;5058484;28;20048;-71
2023/07/27 11:31:07;;;;;;;2.28;1.20;;;;;;;23.13;45.64;92842.31;5059880;28;20055;-71
2023/07/27 11:33:35;;;;;;;2.05;1.10;;;;;;;22.01;44.62;92856.31;5058303;28;20052;-72
2023/07/27 11:36:02;;;;;;;2.72;1.20;;;;;;;22.35;47.23;92857.00;5060502;28;20832;-72